sensor_id;sensor_type;location;lat;lon;timestamp;P1;durP1;ratioP1;P2;durP2;ratioP2
32705;SDS011;19094;50.972;3.538;2024-02-14T00:02:07;9.82;;;4.97;;
32705;SDS011;19094;50.972;3.538;2024-02-14T00:04:32;8.80;;;4.50;;
32705;SDS011;19094;50.972;3.538;2024-02-14T00:06:58;8.30;;;5.10;;
32705;SDS011;19094;50.972;3.538;2024-02-14T00:09:24;8.27;;;4.60;;
32705;SDS011;19094;50.972;3.538;2024-02-14T00:11:49;13.38;;;5.07;;
32705;SDS011;19094;50.972;3.538;2024-02-14T00:14:15;10.60;;;4.55;;
32705;SDS011;19094;50.972;3.538;2024-02-14T00:16:41;7.88;;;4.75;;
32705;SDS011;19094;50.972;3.538;2024-02-14T00:19:06;8.40;;;4.93;;
32705;SDS011;19094;50.972;3.538;2024-02-14T00:21:32;7.97;;;5.35;;
32705;SDS011;19094;50.972;3.538;2024-02-14T00:23:59;7.20;;;4.47;;
32705;SDS011;19094;50.972;3.538;2024-02-14T00:26:26;8.75;;;4.72;;
32705;SDS011;19094;50.972;3.538;2024-02-14T00:28:52;11.13;;;5.20;;
32705;SDS011;19094;50.972;3.538;2024-02-14T00:31:18;12.45;;;4.38;;
32705;SDS011;19094;50.972;3.538;2024-02-14T00:33:43;6.35;;;4.22;;
32705;SDS011;19094;50.972;3.538;2024-02-14T00:36:11;7.45;;;4.18;;
32705;SDS011;19094;50.972;3.538;2024-02-14T00:38:37;9.02;;;4.20;;
32705;SDS011;19094;50.972;3.538;2024-02-14T00:41:02;7.47;;;4.55;;
32705;SDS011;19094;50.972;3.538;2024-02-14T00:43:28;7.45;;;4.55;;
32705;SDS011;19094;50.972;3.538;2024-02-14T00:45:54;10.02;;;4.38;;
32705;SDS011;19094;50.972;3.538;2024-02-14T00:48:21;10.45;;;4.30;;
32705;SDS011;19094;50.972;3.538;2024-02-14T00:50:48;8.75;;;4.28;;
32705;SDS011;19094;50.972;3.538;2024-02-14T00:53:13;7.00;;;4.07;;
32705;SDS011;19094;50.972;3.538;2024-02-14T00:55:39;12.20;;;4.35;;
32705;SDS011;19094;50.972;3.538;2024-02-14T00:58:05;9.45;;;4.70;;
32705;SDS011;19094;50.972;3.538;2024-02-14T01:00:31;11.90;;;4.75;;
32705;SDS011;19094;50.972;3.538;2024-02-14T01:02:57;8.80;;;4.25;;
32705;SDS011;19094;50.972;3.538;2024-02-14T01:05:23;10.05;;;4.70;;
32705;SDS011;19094;50.972;3.538;2024-02-14T01:07:49;9.40;;;4.50;;
32705;SDS011;19094;50.972;3.538;2024-02-14T01:10:15;10.48;;;4.15;;
32705;SDS011;19094;50.972;3.538;2024-02-14T01:12:40;13.02;;;4.82;;
32705;SDS011;19094;50.972;3.538;2024-02-14T01:15:06;9.35;;;4.75;;
32705;SDS011;19094;50.972;3.538;2024-02-14T01:17:32;7.35;;;4.95;;
32705;SDS011;19094;50.972;3.538;2024-02-14T01:20:00;9.38;;;4.90;;
32705;SDS011;19094;50.972;3.538;2024-02-14T01:22:27;8.23;;;4.28;;
32705;SDS011;19094;50.972;3.538;2024-02-14T01:24:53;8.63;;;4.47;;
32705;SDS011;19094;50.972;3.538;2024-02-14T01:27:19;8.60;;;4.15;;
32705;SDS011;19094;50.972;3.538;2024-02-14T01:29:47;11.05;;;4.47;;
32705;SDS011;19094;50.972;3.538;2024-02-14T01:32:13;10.25;;;5.13;;
32705;SDS011;19094;50.972;3.538;2024-02-14T01:34:39;12.52;;;4.72;;
32705;SDS011;19094;50.972;3.538;2024-02-14T01:37:06;7.82;;;4.50;;
32705;SDS011;19094;50.972;3.538;2024-02-14T01:39:32;6.78;;;4.25;;
32705;SDS011;19094;50.972;3.538;2024-02-14T01:41:57;10.48;;;4.30;;
32705;SDS011;19094;50.972;3.538;2024-02-14T01:44:23;6.82;;;4.47;;
32705;SDS011;19094;50.972;3.538;2024-02-14T01:46:48;7.00;;;4.00;;
32705;SDS011;19094;50.972;3.538;2024-02-14T01:49:15;8.40;;;4.30;;
32705;SDS011;19094;50.972;3.538;2024-02-14T01:51:42;8.77;;;3.92;;
32705;SDS011;19094;50.972;3.538;2024-02-14T01:54:10;8.30;;;4.45;;
32705;SDS011;19094;50.972;3.538;2024-02-14T01:56:37;7.70;;;4.45;;
32705;SDS011;19094;50.972;3.538;2024-02-14T01:59:04;8.32;;;3.72;;
32705;SDS011;19094;50.972;3.538;2024-02-14T02:01:33;7.07;;;4.15;;
32705;SDS011;19094;50.972;3.538;2024-02-14T02:03:59;9.07;;;4.32;;
32705;SDS011;19094;50.972;3.538;2024-02-14T02:06:25;7.20;;;4.07;;
32705;SDS011;19094;50.972;3.538;2024-02-14T02:08:51;9.57;;;4.85;;
32705;SDS011;19094;50.972;3.538;2024-02-14T02:11:17;10.32;;;4.45;;
32705;SDS011;19094;50.972;3.538;2024-02-14T02:13:43;11.23;;;5.32;;
32705;SDS011;19094;50.972;3.538;2024-02-14T02:16:09;6.95;;;4.68;;
32705;SDS011;19094;50.972;3.538;2024-02-14T02:18:35;10.90;;;4.68;;
32705;SDS011;19094;50.972;3.538;2024-02-14T02:21:02;10.20;;;4.30;;
32705;SDS011;19094;50.972;3.538;2024-02-14T02:23:31;8.00;;;4.50;;
32705;SDS011;19094;50.972;3.538;2024-02-14T02:26:00;12.00;;;5.22;;
32705;SDS011;19094;50.972;3.538;2024-02-14T02:28:26;6.47;;;4.20;;
32705;SDS011;19094;50.972;3.538;2024-02-14T02:30:52;7.47;;;4.78;;
32705;SDS011;19094;50.972;3.538;2024-02-14T02:33:20;12.43;;;5.18;;
32705;SDS011;19094;50.972;3.538;2024-02-14T02:35:47;8.15;;;4.95;;
32705;SDS011;19094;50.972;3.538;2024-02-14T02:38:14;10.88;;;4.47;;
32705;SDS011;19094;50.972;3.538;2024-02-14T02:40:44;5.72;;;4.25;;
32705;SDS011;19094;50.972;3.538;2024-02-14T02:43:10;9.20;;;4.85;;
32705;SDS011;19094;50.972;3.538;2024-02-14T02:45:36;8.02;;;4.93;;
32705;SDS011;19094;50.972;3.538;2024-02-14T02:48:02;10.80;;;4.53;;
32705;SDS011;19094;50.972;3.538;2024-02-14T02:50:27;11.30;;;4.68;;
32705;SDS011;19094;50.972;3.538;2024-02-14T02:52:54;7.05;;;4.18;;
32705;SDS011;19094;50.972;3.538;2024-02-14T02:55:19;12.65;;;5.35;;
32705;SDS011;19094;50.972;3.538;2024-02-14T02:57:45;12.43;;;5.03;;
32705;SDS011;19094;50.972;3.538;2024-02-14T03:00:11;7.00;;;4.60;;
32705;SDS011;19094;50.972;3.538;2024-02-14T03:02:41;12.27;;;4.68;;
32705;SDS011;19094;50.972;3.538;2024-02-14T03:05:09;12.27;;;4.97;;
32705;SDS011;19094;50.972;3.538;2024-02-14T03:07:42;8.17;;;4.57;;
32705;SDS011;19094;50.972;3.538;2024-02-14T03:10:13;11.18;;;4.53;;
32705;SDS011;19094;50.972;3.538;2024-02-14T03:12:39;10.15;;;5.13;;
32705;SDS011;19094;50.972;3.538;2024-02-14T03:15:05;9.45;;;4.38;;
32705;SDS011;19094;50.972;3.538;2024-02-14T03:17:35;11.52;;;4.90;;
32705;SDS011;19094;50.972;3.538;2024-02-14T03:20:00;16.23;;;4.63;;
32705;SDS011;19094;50.972;3.538;2024-02-14T03:22:26;7.15;;;4.78;;
32705;SDS011;19094;50.972;3.538;2024-02-14T03:24:52;8.32;;;4.95;;
32705;SDS011;19094;50.972;3.538;2024-02-14T03:27:17;10.13;;;5.00;;
32705;SDS011;19094;50.972;3.538;2024-02-14T03:29:43;9.15;;;4.82;;
32705;SDS011;19094;50.972;3.538;2024-02-14T03:32:09;11.05;;;5.43;;
32705;SDS011;19094;50.972;3.538;2024-02-14T03:34:35;8.25;;;4.72;;
32705;SDS011;19094;50.972;3.538;2024-02-14T03:37:01;10.77;;;5.38;;
32705;SDS011;19094;50.972;3.538;2024-02-14T03:39:28;9.70;;;5.60;;
32705;SDS011;19094;50.972;3.538;2024-02-14T03:41:54;9.65;;;5.20;;
32705;SDS011;19094;50.972;3.538;2024-02-14T03:44:20;9.35;;;5.53;;
32705;SDS011;19094;50.972;3.538;2024-02-14T03:46:46;9.73;;;5.20;;
32705;SDS011;19094;50.972;3.538;2024-02-14T03:49:12;8.98;;;4.72;;
32705;SDS011;19094;50.972;3.538;2024-02-14T03:51:38;13.38;;;5.30;;
32705;SDS011;19094;50.972;3.538;2024-02-14T03:54:05;9.75;;;4.90;;
32705;SDS011;19094;50.972;3.538;2024-02-14T03:56:30;7.72;;;5.03;;
32705;SDS011;19094;50.972;3.538;2024-02-14T03:58:58;10.57;;;5.50;;
32705;SDS011;19094;50.972;3.538;2024-02-14T04:01:24;7.28;;;4.93;;
32705;SDS011;19094;50.972;3.538;2024-02-14T04:03:50;7.97;;;4.68;;
32705;SDS011;19094;50.972;3.538;2024-02-14T04:06:15;9.25;;;5.18;;
32705;SDS011;19094;50.972;3.538;2024-02-14T04:08:42;10.15;;;6.20;;
32705;SDS011;19094;50.972;3.538;2024-02-14T04:11:08;9.05;;;5.18;;
32705;SDS011;19094;50.972;3.538;2024-02-14T04:13:34;9.90;;;5.07;;
32705;SDS011;19094;50.972;3.538;2024-02-14T04:16:00;9.65;;;5.82;;
32705;SDS011;19094;50.972;3.538;2024-02-14T04:18:26;9.48;;;5.30;;
32705;SDS011;19094;50.972;3.538;2024-02-14T04:20:52;12.27;;;5.47;;
32705;SDS011;19094;50.972;3.538;2024-02-14T04:23:17;9.27;;;5.22;;
32705;SDS011;19094;50.972;3.538;2024-02-14T04:25:43;13.00;;;5.53;;
32705;SDS011;19094;50.972;3.538;2024-02-14T04:28:09;9.57;;;5.03;;
32705;SDS011;19094;50.972;3.538;2024-02-14T04:30:36;8.95;;;5.32;;
32705;SDS011;19094;50.972;3.538;2024-02-14T04:33:02;11.73;;;5.20;;
32705;SDS011;19094;50.972;3.538;2024-02-14T04:35:29;9.00;;;5.63;;
32705;SDS011;19094;50.972;3.538;2024-02-14T04:37:55;9.90;;;5.32;;
32705;SDS011;19094;50.972;3.538;2024-02-14T04:40:21;10.00;;;5.95;;
32705;SDS011;19094;50.972;3.538;2024-02-14T04:42:47;12.25;;;5.25;;
32705;SDS011;19094;50.972;3.538;2024-02-14T04:45:12;14.35;;;4.72;;
32705;SDS011;19094;50.972;3.538;2024-02-14T04:47:38;11.95;;;5.25;;
32705;SDS011;19094;50.972;3.538;2024-02-14T04:50:04;8.75;;;5.18;;
32705;SDS011;19094;50.972;3.538;2024-02-14T04:52:30;9.93;;;4.82;;
32705;SDS011;19094;50.972;3.538;2024-02-14T04:54:56;15.27;;;5.30;;
32705;SDS011;19094;50.972;3.538;2024-02-14T04:57:22;9.77;;;5.03;;
32705;SDS011;19094;50.972;3.538;2024-02-14T04:59:48;9.50;;;5.45;;
32705;SDS011;19094;50.972;3.538;2024-02-14T05:02:13;8.63;;;4.78;;
32705;SDS011;19094;50.972;3.538;2024-02-14T05:04:39;7.07;;;4.78;;
32705;SDS011;19094;50.972;3.538;2024-02-14T05:07:05;10.20;;;4.68;;
32705;SDS011;19094;50.972;3.538;2024-02-14T05:09:32;11.68;;;4.53;;
32705;SDS011;19094;50.972;3.538;2024-02-14T05:11:58;8.50;;;4.63;;
32705;SDS011;19094;50.972;3.538;2024-02-14T05:14:24;11.25;;;5.28;;
32705;SDS011;19094;50.972;3.538;2024-02-14T05:16:49;10.70;;;4.50;;
32705;SDS011;19094;50.972;3.538;2024-02-14T05:19:15;9.88;;;5.53;;
32705;SDS011;19094;50.972;3.538;2024-02-14T05:21:41;8.82;;;4.55;;
32705;SDS011;19094;50.972;3.538;2024-02-14T05:24:06;8.30;;;5.18;;
32705;SDS011;19094;50.972;3.538;2024-02-14T05:26:32;8.15;;;5.10;;
32705;SDS011;19094;50.972;3.538;2024-02-14T05:28:58;12.32;;;5.00;;
32705;SDS011;19094;50.972;3.538;2024-02-14T05:31:24;9.20;;;5.20;;
32705;SDS011;19094;50.972;3.538;2024-02-14T05:33:54;9.80;;;4.85;;
32705;SDS011;19094;50.972;3.538;2024-02-14T05:36:19;11.98;;;4.95;;
32705;SDS011;19094;50.972;3.538;2024-02-14T05:38:45;13.73;;;5.20;;
32705;SDS011;19094;50.972;3.538;2024-02-14T05:41:10;8.82;;;4.97;;
32705;SDS011;19094;50.972;3.538;2024-02-14T05:43:37;12.23;;;5.18;;
32705;SDS011;19094;50.972;3.538;2024-02-14T05:46:03;10.55;;;4.82;;
32705;SDS011;19094;50.972;3.538;2024-02-14T05:48:29;12.57;;;4.40;;
32705;SDS011;19094;50.972;3.538;2024-02-14T05:50:54;12.25;;;4.90;;
32705;SDS011;19094;50.972;3.538;2024-02-14T05:53:20;10.88;;;5.38;;
32705;SDS011;19094;50.972;3.538;2024-02-14T05:55:46;12.45;;;5.82;;
32705;SDS011;19094;50.972;3.538;2024-02-14T05:58:11;13.68;;;4.95;;
32705;SDS011;19094;50.972;3.538;2024-02-14T06:00:38;13.75;;;5.10;;
32705;SDS011;19094;50.972;3.538;2024-02-14T06:03:03;15.13;;;4.45;;
32705;SDS011;19094;50.972;3.538;2024-02-14T06:05:31;11.05;;;5.28;;
32705;SDS011;19094;50.972;3.538;2024-02-14T06:07:56;11.13;;;4.82;;
32705;SDS011;19094;50.972;3.538;2024-02-14T06:10:22;8.77;;;4.03;;
32705;SDS011;19094;50.972;3.538;2024-02-14T06:12:50;9.63;;;4.45;;
32705;SDS011;19094;50.972;3.538;2024-02-14T06:15:16;11.52;;;4.97;;
32705;SDS011;19094;50.972;3.538;2024-02-14T06:17:41;12.02;;;5.45;;
32705;SDS011;19094;50.972;3.538;2024-02-14T06:20:07;12.82;;;5.53;;
32705;SDS011;19094;50.972;3.538;2024-02-14T06:22:34;9.30;;;4.93;;
32705;SDS011;19094;50.972;3.538;2024-02-14T06:24:59;12.88;;;4.78;;
32705;SDS011;19094;50.972;3.538;2024-02-14T06:27:25;11.98;;;5.30;;
32705;SDS011;19094;50.972;3.538;2024-02-14T06:29:52;19.33;;;4.82;;
32705;SDS011;19094;50.972;3.538;2024-02-14T06:32:18;18.08;;;5.90;;
32705;SDS011;19094;50.972;3.538;2024-02-14T06:34:44;12.82;;;5.20;;
32705;SDS011;19094;50.972;3.538;2024-02-14T06:37:09;12.02;;;5.50;;
32705;SDS011;19094;50.972;3.538;2024-02-14T06:39:35;12.48;;;6.05;;
32705;SDS011;19094;50.972;3.538;2024-02-14T06:42:00;14.68;;;6.57;;
32705;SDS011;19094;50.972;3.538;2024-02-14T06:44:26;11.43;;;4.97;;
32705;SDS011;19094;50.972;3.538;2024-02-14T06:46:52;14.70;;;5.32;;
32705;SDS011;19094;50.972;3.538;2024-02-14T06:49:18;13.38;;;6.10;;
32705;SDS011;19094;50.972;3.538;2024-02-14T06:51:43;13.75;;;4.80;;
32705;SDS011;19094;50.972;3.538;2024-02-14T06:54:10;7.88;;;4.57;;
32705;SDS011;19094;50.972;3.538;2024-02-14T06:56:37;10.23;;;4.88;;
32705;SDS011;19094;50.972;3.538;2024-02-14T06:59:03;14.05;;;5.03;;
32705;SDS011;19094;50.972;3.538;2024-02-14T07:01:29;16.50;;;5.85;;
32705;SDS011;19094;50.972;3.538;2024-02-14T07:03:55;12.23;;;5.13;;
32705;SDS011;19094;50.972;3.538;2024-02-14T07:06:22;13.05;;;5.68;;
32705;SDS011;19094;50.972;3.538;2024-02-14T07:08:47;14.38;;;5.50;;
32705;SDS011;19094;50.972;3.538;2024-02-14T07:11:14;13.35;;;5.82;;
32705;SDS011;19094;50.972;3.538;2024-02-14T07:13:43;13.45;;;5.57;;
32705;SDS011;19094;50.972;3.538;2024-02-14T07:16:08;11.20;;;5.50;;
32705;SDS011;19094;50.972;3.538;2024-02-14T07:18:34;16.77;;;6.85;;
32705;SDS011;19094;50.972;3.538;2024-02-14T07:21:00;12.70;;;5.40;;
32705;SDS011;19094;50.972;3.538;2024-02-14T07:23:26;14.57;;;6.65;;
32705;SDS011;19094;50.972;3.538;2024-02-14T07:25:52;20.25;;;6.00;;
32705;SDS011;19094;50.972;3.538;2024-02-14T07:28:18;11.95;;;6.07;;
32705;SDS011;19094;50.972;3.538;2024-02-14T07:30:44;16.13;;;6.15;;
32705;SDS011;19094;50.972;3.538;2024-02-14T07:33:09;10.80;;;5.32;;
32705;SDS011;19094;50.972;3.538;2024-02-14T07:35:38;16.40;;;5.20;;
32705;SDS011;19094;50.972;3.538;2024-02-14T07:38:04;10.52;;;5.47;;
32705;SDS011;19094;50.972;3.538;2024-02-14T07:40:30;14.05;;;6.30;;
32705;SDS011;19094;50.972;3.538;2024-02-14T07:42:59;11.18;;;5.57;;
32705;SDS011;19094;50.972;3.538;2024-02-14T07:45:25;9.93;;;6.07;;
32705;SDS011;19094;50.972;3.538;2024-02-14T07:47:50;13.20;;;5.82;;
32705;SDS011;19094;50.972;3.538;2024-02-14T07:50:16;13.68;;;7.93;;
32705;SDS011;19094;50.972;3.538;2024-02-14T07:52:42;15.40;;;6.78;;
32705;SDS011;19094;50.972;3.538;2024-02-14T07:55:09;13.65;;;6.15;;
32705;SDS011;19094;50.972;3.538;2024-02-14T07:57:41;14.77;;;6.75;;
32705;SDS011;19094;50.972;3.538;2024-02-14T08:00:07;13.70;;;6.28;;
32705;SDS011;19094;50.972;3.538;2024-02-14T08:02:34;16.73;;;6.78;;
32705;SDS011;19094;50.972;3.538;2024-02-14T08:05:01;12.73;;;6.07;;
32705;SDS011;19094;50.972;3.538;2024-02-14T08:07:27;10.00;;;5.90;;
32705;SDS011;19094;50.972;3.538;2024-02-14T08:09:52;8.70;;;5.60;;
32705;SDS011;19094;50.972;3.538;2024-02-14T08:12:19;13.98;;;6.38;;
32705;SDS011;19094;50.972;3.538;2024-02-14T08:14:45;13.88;;;5.78;;
32705;SDS011;19094;50.972;3.538;2024-02-14T08:17:12;9.27;;;5.88;;
32705;SDS011;19094;50.972;3.538;2024-02-14T08:19:38;13.73;;;6.18;;
32705;SDS011;19094;50.972;3.538;2024-02-14T08:22:04;11.43;;;6.13;;
32705;SDS011;19094;50.972;3.538;2024-02-14T08:24:30;17.02;;;6.82;;
32705;SDS011;19094;50.972;3.538;2024-02-14T08:26:56;15.02;;;6.47;;
32705;SDS011;19094;50.972;3.538;2024-02-14T08:29:22;15.45;;;7.05;;
32705;SDS011;19094;50.972;3.538;2024-02-14T08:31:48;11.98;;;6.22;;
32705;SDS011;19094;50.972;3.538;2024-02-14T08:34:14;14.35;;;6.00;;
32705;SDS011;19094;50.972;3.538;2024-02-14T08:36:40;10.63;;;5.18;;
32705;SDS011;19094;50.972;3.538;2024-02-14T08:39:09;14.20;;;6.10;;
32705;SDS011;19094;50.972;3.538;2024-02-14T08:41:38;12.30;;;5.88;;
32705;SDS011;19094;50.972;3.538;2024-02-14T08:44:08;12.07;;;6.07;;
32705;SDS011;19094;50.972;3.538;2024-02-14T08:46:34;10.63;;;5.30;;
32705;SDS011;19094;50.972;3.538;2024-02-14T08:49:00;12.45;;;5.85;;
32705;SDS011;19094;50.972;3.538;2024-02-14T08:51:27;14.77;;;6.13;;
32705;SDS011;19094;50.972;3.538;2024-02-14T08:53:53;12.20;;;5.82;;
32705;SDS011;19094;50.972;3.538;2024-02-14T08:56:22;11.98;;;6.30;;
32705;SDS011;19094;50.972;3.538;2024-02-14T08:58:48;12.27;;;6.63;;
32705;SDS011;19094;50.972;3.538;2024-02-14T09:01:14;10.82;;;6.50;;
32705;SDS011;19094;50.972;3.538;2024-02-14T09:03:41;11.65;;;6.57;;
32705;SDS011;19094;50.972;3.538;2024-02-14T09:06:13;13.77;;;6.30;;
32705;SDS011;19094;50.972;3.538;2024-02-14T09:08:39;12.15;;;6.53;;
32705;SDS011;19094;50.972;3.538;2024-02-14T09:11:05;11.13;;;6.50;;
32705;SDS011;19094;50.972;3.538;2024-02-14T09:13:37;10.57;;;6.20;;
32705;SDS011;19094;50.972;3.538;2024-02-14T09:16:05;12.60;;;5.80;;
32705;SDS011;19094;50.972;3.538;2024-02-14T09:18:32;15.77;;;6.10;;
32705;SDS011;19094;50.972;3.538;2024-02-14T09:20:58;11.68;;;6.10;;
32705;SDS011;19094;50.972;3.538;2024-02-14T09:23:24;12.15;;;5.78;;
32705;SDS011;19094;50.972;3.538;2024-02-14T09:25:50;9.45;;;5.70;;
32705;SDS011;19094;50.972;3.538;2024-02-14T09:28:16;12.43;;;6.20;;
32705;SDS011;19094;50.972;3.538;2024-02-14T09:30:42;11.55;;;5.43;;
32705;SDS011;19094;50.972;3.538;2024-02-14T09:33:07;9.15;;;5.70;;
32705;SDS011;19094;50.972;3.538;2024-02-14T09:35:33;12.82;;;6.47;;
32705;SDS011;19094;50.972;3.538;2024-02-14T09:38:00;9.95;;;5.88;;
32705;SDS011;19094;50.972;3.538;2024-02-14T09:40:26;10.05;;;5.15;;
32705;SDS011;19094;50.972;3.538;2024-02-14T09:42:55;8.82;;;6.03;;
32705;SDS011;19094;50.972;3.538;2024-02-14T09:45:25;13.05;;;6.65;;
32705;SDS011;19094;50.972;3.538;2024-02-14T09:47:52;13.30;;;7.88;;
32705;SDS011;19094;50.972;3.538;2024-02-14T09:50:21;8.70;;;5.40;;
32705;SDS011;19094;50.972;3.538;2024-02-14T09:52:49;9.85;;;5.80;;
32705;SDS011;19094;50.972;3.538;2024-02-14T09:55:15;7.28;;;4.95;;
32705;SDS011;19094;50.972;3.538;2024-02-14T09:57:42;11.60;;;5.55;;
32705;SDS011;19094;50.972;3.538;2024-02-14T10:00:11;10.05;;;4.90;;
32705;SDS011;19094;50.972;3.538;2024-02-14T10:02:41;8.93;;;5.25;;
32705;SDS011;19094;50.972;3.538;2024-02-14T10:05:07;10.20;;;5.05;;
32705;SDS011;19094;50.972;3.538;2024-02-14T10:07:39;10.82;;;5.05;;
32705;SDS011;19094;50.972;3.538;2024-02-14T10:10:08;8.50;;;5.05;;
32705;SDS011;19094;50.972;3.538;2024-02-14T10:12:35;7.20;;;5.10;;
32705;SDS011;19094;50.972;3.538;2024-02-14T10:15:01;6.18;;;4.30;;
32705;SDS011;19094;50.972;3.538;2024-02-14T10:17:29;6.78;;;4.25;;
32705;SDS011;19094;50.972;3.538;2024-02-14T10:19:57;7.18;;;4.72;;
32705;SDS011;19094;50.972;3.538;2024-02-14T10:22:24;6.75;;;4.45;;
32705;SDS011;19094;50.972;3.538;2024-02-14T10:24:50;9.32;;;4.53;;
32705;SDS011;19094;50.972;3.538;2024-02-14T10:27:17;8.35;;;4.70;;
32705;SDS011;19094;50.972;3.538;2024-02-14T10:29:42;8.52;;;4.95;;
32705;SDS011;19094;50.972;3.538;2024-02-14T10:32:14;10.23;;;5.35;;
32705;SDS011;19094;50.972;3.538;2024-02-14T10:34:41;9.63;;;4.22;;
32705;SDS011;19094;50.972;3.538;2024-02-14T10:37:10;6.63;;;4.07;;
32705;SDS011;19094;50.972;3.538;2024-02-14T10:39:41;6.10;;;4.10;;
32705;SDS011;19094;50.972;3.538;2024-02-14T10:42:08;6.75;;;4.25;;
32705;SDS011;19094;50.972;3.538;2024-02-14T10:44:34;10.98;;;4.38;;
32705;SDS011;19094;50.972;3.538;2024-02-14T10:47:01;6.78;;;4.70;;
32705;SDS011;19094;50.972;3.538;2024-02-14T10:49:32;7.38;;;4.60;;
32705;SDS011;19094;50.972;3.538;2024-02-14T10:51:59;6.75;;;4.53;;
32705;SDS011;19094;50.972;3.538;2024-02-14T10:54:32;6.85;;;4.30;;
32705;SDS011;19094;50.972;3.538;2024-02-14T10:57:00;10.38;;;4.22;;
32705;SDS011;19094;50.972;3.538;2024-02-14T10:59:36;8.18;;;4.45;;
32705;SDS011;19094;50.972;3.538;2024-02-14T11:02:06;7.78;;;5.07;;
32705;SDS011;19094;50.972;3.538;2024-02-14T11:04:32;8.18;;;5.15;;
32705;SDS011;19094;50.972;3.538;2024-02-14T11:06:58;7.97;;;4.50;;
32705;SDS011;19094;50.972;3.538;2024-02-14T11:09:35;9.90;;;5.72;;
32705;SDS011;19094;50.972;3.538;2024-02-14T11:12:02;8.23;;;5.20;;
32705;SDS011;19094;50.972;3.538;2024-02-14T11:14:32;8.80;;;5.43;;
32705;SDS011;19094;50.972;3.538;2024-02-14T11:17:01;12.40;;;6.45;;
32705;SDS011;19094;50.972;3.538;2024-02-14T11:19:33;9.25;;;5.43;;
32705;SDS011;19094;50.972;3.538;2024-02-14T11:22:09;10.80;;;5.80;;
32705;SDS011;19094;50.972;3.538;2024-02-14T11:24:45;8.35;;;5.18;;
32705;SDS011;19094;50.972;3.538;2024-02-14T11:27:14;8.93;;;5.45;;
32705;SDS011;19094;50.972;3.538;2024-02-14T11:29:52;17.27;;;5.10;;
32705;SDS011;19094;50.972;3.538;2024-02-14T11:32:18;10.20;;;5.20;;
32705;SDS011;19094;50.972;3.538;2024-02-14T11:34:53;15.07;;;5.35;;
32705;SDS011;19094;50.972;3.538;2024-02-14T11:37:20;8.18;;;5.55;;
32705;SDS011;19094;50.972;3.538;2024-02-14T11:39:52;10.95;;;5.63;;
32705;SDS011;19094;50.972;3.538;2024-02-14T11:42:20;12.90;;;5.13;;
32705;SDS011;19094;50.972;3.538;2024-02-14T11:44:46;9.70;;;4.95;;
32705;SDS011;19094;50.972;3.538;2024-02-14T11:47:12;9.70;;;4.88;;
32705;SDS011;19094;50.972;3.538;2024-02-14T11:49:38;9.43;;;4.90;;
32705;SDS011;19094;50.972;3.538;2024-02-14T11:52:04;11.00;;;4.63;;
32705;SDS011;19094;50.972;3.538;2024-02-14T11:54:34;11.10;;;4.72;;
32705;SDS011;19094;50.972;3.538;2024-02-14T11:57:00;11.43;;;4.32;;
32705;SDS011;19094;50.972;3.538;2024-02-14T11:59:25;12.00;;;5.13;;
32705;SDS011;19094;50.972;3.538;2024-02-14T12:01:51;10.80;;;5.18;;
32705;SDS011;19094;50.972;3.538;2024-02-14T12:04:19;12.85;;;5.30;;
32705;SDS011;19094;50.972;3.538;2024-02-14T12:06:45;10.95;;;4.60;;
32705;SDS011;19094;50.972;3.538;2024-02-14T12:09:11;11.45;;;5.28;;
32705;SDS011;19094;50.972;3.538;2024-02-14T12:11:38;10.25;;;5.30;;
32705;SDS011;19094;50.972;3.538;2024-02-14T12:14:08;11.07;;;5.47;;
32705;SDS011;19094;50.972;3.538;2024-02-14T12:16:35;10.88;;;5.20;;
32705;SDS011;19094;50.972;3.538;2024-02-14T12:19:05;8.02;;;4.20;;
32705;SDS011;19094;50.972;3.538;2024-02-14T12:21:37;10.43;;;4.80;;
32705;SDS011;19094;50.972;3.538;2024-02-14T12:24:04;12.38;;;5.22;;
32705;SDS011;19094;50.972;3.538;2024-02-14T12:26:39;12.73;;;4.85;;
32705;SDS011;19094;50.972;3.538;2024-02-14T12:29:05;12.43;;;5.00;;
32705;SDS011;19094;50.972;3.538;2024-02-14T12:31:35;9.55;;;4.30;;
32705;SDS011;19094;50.972;3.538;2024-02-14T12:34:02;10.75;;;4.63;;
32705;SDS011;19094;50.972;3.538;2024-02-14T12:36:30;9.75;;;4.60;;
32705;SDS011;19094;50.972;3.538;2024-02-14T12:38:58;13.20;;;5.00;;
32705;SDS011;19094;50.972;3.538;2024-02-14T12:41:24;8.48;;;4.55;;
32705;SDS011;19094;50.972;3.538;2024-02-14T12:43:52;9.50;;;4.53;;
32705;SDS011;19094;50.972;3.538;2024-02-14T12:46:18;10.60;;;4.95;;
32705;SDS011;19094;50.972;3.538;2024-02-14T12:48:44;12.23;;;4.60;;
32705;SDS011;19094;50.972;3.538;2024-02-14T12:51:10;12.75;;;5.57;;
32705;SDS011;19094;50.972;3.538;2024-02-14T12:53:35;11.30;;;5.50;;
32705;SDS011;19094;50.972;3.538;2024-02-14T12:56:01;18.67;;;5.43;;
32705;SDS011;19094;50.972;3.538;2024-02-14T12:58:29;11.48;;;5.00;;
32705;SDS011;19094;50.972;3.538;2024-02-14T13:00:56;9.77;;;4.63;;
32705;SDS011;19094;50.972;3.538;2024-02-14T13:03:23;12.02;;;4.45;;
32705;SDS011;19094;50.972;3.538;2024-02-14T13:05:49;10.80;;;5.03;;
32705;SDS011;19094;50.972;3.538;2024-02-14T13:08:16;8.10;;;4.18;;
32705;SDS011;19094;50.972;3.538;2024-02-14T13:10:41;9.00;;;4.50;;
32705;SDS011;19094;50.972;3.538;2024-02-14T13:13:08;10.70;;;4.45;;
32705;SDS011;19094;50.972;3.538;2024-02-14T13:15:34;11.02;;;4.93;;
32705;SDS011;19094;50.972;3.538;2024-02-14T13:18:00;8.70;;;4.53;;
32705;SDS011;19094;50.972;3.538;2024-02-14T13:20:27;10.73;;;4.38;;
32705;SDS011;19094;50.972;3.538;2024-02-14T13:22:54;10.43;;;4.07;;
32705;SDS011;19094;50.972;3.538;2024-02-14T13:25:20;8.60;;;4.18;;
32705;SDS011;19094;50.972;3.538;2024-02-14T13:27:46;16.33;;;5.57;;
32705;SDS011;19094;50.972;3.538;2024-02-14T13:30:12;9.80;;;4.88;;
32705;SDS011;19094;50.972;3.538;2024-02-14T13:32:38;11.38;;;5.40;;
32705;SDS011;19094;50.972;3.538;2024-02-14T13:35:04;12.30;;;5.63;;
32705;SDS011;19094;50.972;3.538;2024-02-14T13:37:30;16.02;;;6.78;;
32705;SDS011;19094;50.972;3.538;2024-02-14T13:39:57;17.30;;;6.95;;
32705;SDS011;19094;50.972;3.538;2024-02-14T13:42:23;9.65;;;5.13;;
32705;SDS011;19094;50.972;3.538;2024-02-14T13:44:48;13.35;;;5.65;;
32705;SDS011;19094;50.972;3.538;2024-02-14T13:47:17;12.18;;;5.25;;
32705;SDS011;19094;50.972;3.538;2024-02-14T13:49:46;11.05;;;5.00;;
32705;SDS011;19094;50.972;3.538;2024-02-14T13:52:12;12.02;;;5.15;;
32705;SDS011;19094;50.972;3.538;2024-02-14T13:54:38;6.55;;;4.35;;
32705;SDS011;19094;50.972;3.538;2024-02-14T13:57:03;9.98;;;5.28;;
32705;SDS011;19094;50.972;3.538;2024-02-14T13:59:29;8.70;;;5.20;;
32705;SDS011;19094;50.972;3.538;2024-02-14T14:01:55;11.55;;;5.10;;
32705;SDS011;19094;50.972;3.538;2024-02-14T14:04:20;13.77;;;5.20;;
32705;SDS011;19094;50.972;3.538;2024-02-14T14:06:46;12.90;;;5.20;;
32705;SDS011;19094;50.972;3.538;2024-02-14T14:09:13;8.85;;;5.28;;
32705;SDS011;19094;50.972;3.538;2024-02-14T14:11:38;11.38;;;5.32;;
32705;SDS011;19094;50.972;3.538;2024-02-14T14:14:05;12.88;;;5.30;;
32705;SDS011;19094;50.972;3.538;2024-02-14T14:16:31;16.00;;;5.50;;
32705;SDS011;19094;50.972;3.538;2024-02-14T14:19:00;9.60;;;4.97;;
32705;SDS011;19094;50.972;3.538;2024-02-14T14:21:26;10.20;;;4.82;;
32705;SDS011;19094;50.972;3.538;2024-02-14T14:23:52;10.13;;;5.13;;
32705;SDS011;19094;50.972;3.538;2024-02-14T14:26:17;16.25;;;6.07;;
32705;SDS011;19094;50.972;3.538;2024-02-14T14:28:44;8.02;;;4.55;;
32705;SDS011;19094;50.972;3.538;2024-02-14T14:31:11;15.25;;;5.30;;
32705;SDS011;19094;50.972;3.538;2024-02-14T14:33:37;13.73;;;5.68;;
32705;SDS011;19094;50.972;3.538;2024-02-14T14:36:06;17.55;;;7.22;;
32705;SDS011;19094;50.972;3.538;2024-02-14T14:38:31;12.25;;;6.07;;